createdAt,value
2022-08-27T03:02:30.056Z,3.72
2022-08-27T03:04:57.352Z,3.58
2022-08-27T03:07:24.645Z,3.60
2022-08-27T03:09:52.794Z,3.45
2022-08-27T03:12:20.074Z,3.63
2022-08-27T03:14:50.369Z,4.40
2022-08-27T03:17:37.906Z,3.58
2022-08-27T03:20:07.166Z,3.90
2022-08-27T03:22:34.953Z,3.83
2022-08-27T03:25:03.731Z,4.22
2022-08-27T03:27:31.193Z,4.15
2022-08-27T03:30:01.904Z,3.97
2022-08-27T03:32:31.222Z,3.80
2022-08-27T03:34:58.860Z,4.00
2022-08-27T03:37:26.132Z,3.95
2022-08-27T03:39:53.485Z,3.92
2022-08-27T03:42:21.609Z,4.70
2022-08-27T03:44:48.946Z,4.22
2022-08-27T03:47:16.235Z,4.45
2022-08-27T03:49:43.499Z,4.25
2022-08-27T03:52:11.049Z,3.95
2022-08-27T03:54:38.838Z,4.18
2022-08-27T03:57:06.605Z,4.90
2022-08-27T03:59:33.933Z,4.28
2022-08-27T04:02:02.243Z,4.45
2022-08-27T04:04:31.036Z,4.65
2022-08-27T04:06:59.074Z,4.95
2022-08-27T04:09:26.992Z,4.75
2022-08-27T04:11:54.926Z,5.00
2022-08-27T04:14:26.340Z,5.35
2022-08-27T04:16:56.162Z,4.70
2022-08-27T04:19:27.551Z,4.25
2022-08-27T04:22:03.606Z,5.13
2022-08-27T04:24:33.067Z,4.70
2022-08-27T04:27:01.220Z,4.72
2022-08-27T04:29:28.732Z,4.88
2022-08-27T04:31:56.399Z,4.43
2022-08-27T04:34:23.949Z,4.78
2022-08-27T04:36:51.478Z,4.95
2022-08-27T04:39:20.653Z,5.47
2022-08-27T04:41:51.970Z,6.10
2022-08-27T04:44:19.285Z,5.57
2022-08-27T04:46:49.351Z,4.88
2022-08-27T04:49:17.510Z,5.13
2022-08-27T04:51:44.798Z,5.18
2022-08-27T04:54:13.375Z,6.00
2022-08-27T04:56:41.373Z,5.15
2022-08-27T04:59:10.304Z,5.10
2022-08-27T05:01:40.105Z,4.68
2022-08-27T05:04:08.343Z,5.03
2022-08-27T05:06:36.828Z,4.85
2022-08-27T05:09:05.484Z,5.15
2022-08-27T05:11:34.690Z,5.07
2022-08-27T05:14:04.045Z,5.13
2022-08-27T05:16:31.905Z,4.45
2022-08-27T05:18:59.903Z,5.90
2022-08-27T05:21:31.779Z,5.95
2022-08-27T05:24:01.227Z,4.90
2022-08-27T05:26:29.835Z,4.85
2022-08-27T05:29:00.123Z,5.00
2022-08-27T05:31:28.469Z,5.18
2022-08-27T05:33:57.125Z,5.25
2022-08-27T05:36:30.531Z,5.07
2022-08-27T05:39:00.008Z,4.78
2022-08-27T05:41:33.885Z,5.00
2022-08-27T05:44:30.235Z,4.40
2022-08-27T05:46:56.443Z,4.60
2022-08-27T05:49:23.653Z,4.93
2022-08-27T05:51:50.963Z,5.10
2022-08-27T05:54:21.232Z,4.90
2022-08-27T05:56:49.848Z,4.15
2022-08-27T05:59:36.632Z,4.80
2022-08-27T06:02:06.006Z,4.47
2022-08-27T06:04:33.760Z,4.50
2022-08-27T06:07:00.996Z,5.20
2022-08-27T06:09:29.677Z,5.35
2022-08-27T06:12:02.464Z,5.40
2022-08-27T06:14:30.112Z,5.60
2022-08-27T06:17:00.024Z,5.55
2022-08-27T06:19:27.706Z,6.07
2022-08-27T06:22:00.054Z,5.55
2022-08-27T06:24:29.298Z,6.13
2022-08-27T06:26:57.463Z,5.55
2022-08-27T06:29:25.069Z,6.22
2022-08-27T06:31:54.951Z,6.53
2022-08-27T06:34:22.256Z,6.25
2022-08-27T06:36:49.548Z,5.70
2022-08-27T06:39:16.890Z,4.93
2022-08-27T06:41:45.105Z,5.90
2022-08-27T06:44:13.682Z,5.88
2022-08-27T06:46:42.320Z,6.88
2022-08-27T06:49:10.600Z,6.00
2022-08-27T06:51:39.619Z,5.28
2022-08-27T06:54:10.014Z,5.65
2022-08-27T06:56:37.665Z,5.80
2022-08-27T06:59:11.831Z,6.45
2022-08-27T07:01:42.670Z,5.68
2022-08-27T07:04:14.109Z,5.97
2022-08-27T07:06:41.886Z,5.80
2022-08-27T07:09:10.148Z,5.63
2022-08-27T07:11:38.529Z,5.38
2022-08-27T07:14:06.774Z,5.72
2022-08-27T07:16:34.708Z,5.30
2022-08-27T07:19:05.048Z,4.70
2022-08-27T07:21:33.712Z,5.35
2022-08-27T07:24:04.812Z,5.40
2022-08-27T07:26:41.195Z,6.93
2022-08-27T07:29:10.383Z,6.25
2022-08-27T07:31:38.842Z,5.20
2022-08-27T07:34:06.790Z,6.55
2022-08-27T07:36:35.682Z,6.18
2022-08-27T07:39:03.776Z,5.60
2022-08-27T07:41:32.270Z,5.00
2022-08-27T07:44:19.259Z,5.30
2022-08-27T07:46:48.678Z,4.88
2022-08-27T07:49:20.279Z,4.95
2022-08-27T07:51:47.819Z,5.07
2022-08-27T07:54:16.156Z,3.88
2022-08-27T07:56:44.282Z,4.75
2022-08-27T07:59:24.782Z,5.18
2022-08-27T08:01:53.143Z,5.00
2022-08-27T08:04:22.577Z,5.45
2022-08-27T08:06:50.921Z,5.07
2022-08-27T08:09:19.424Z,5.25
2022-08-27T08:11:46.636Z,4.53
2022-08-27T08:14:13.925Z,4.57
2022-08-27T08:16:41.404Z,5.25
2022-08-27T08:19:09.343Z,5.20
2022-08-27T08:21:37.992Z,5.57
2022-08-27T08:24:05.732Z,4.82
2022-08-27T08:26:33.068Z,6.95
2022-08-27T08:29:04.350Z,5.80
2022-08-27T08:31:31.882Z,5.97
2022-08-27T08:33:59.121Z,6.30
2022-08-27T08:36:26.379Z,5.57
2022-08-27T08:38:53.819Z,6.47
2022-08-27T08:41:44.021Z,6.28
2022-08-27T08:44:27.089Z,5.68
2022-08-27T08:47:05.807Z,5.75
2022-08-27T08:49:37.110Z,4.97
2022-08-27T08:52:37.249Z,5.43
2022-08-27T08:55:13.327Z,6.40
2022-08-27T08:57:58.979Z,5.15
2022-08-27T09:00:26.247Z,5.57
2022-08-27T09:02:54.945Z,6.43
2022-08-27T09:05:24.078Z,7.00
2022-08-27T09:08:35.194Z,7.07
2022-08-27T09:11:18.952Z,6.63
2022-08-27T09:14:00.346Z,6.75
2022-08-27T09:16:28.052Z,8.27
2022-08-27T09:18:55.982Z,7.60
2022-08-27T09:21:49.478Z,7.60
2022-08-27T09:24:45.631Z,8.02
2022-08-27T09:27:15.159Z,7.53
2022-08-27T09:29:51.702Z,9.27
2022-08-27T09:32:25.390Z,7.55
2022-08-27T09:35:00.153Z,8.95
2022-08-27T09:37:38.795Z,7.55
2022-08-27T09:40:22.887Z,7.72
2022-08-27T09:42:53.617Z,7.80
2022-08-27T09:45:26.399Z,7.93
2022-08-27T09:47:55.509Z,7.90
2022-08-27T09:50:31.504Z,7.45
2022-08-27T09:53:00.128Z,8.45
2022-08-27T09:55:27.443Z,7.80
2022-08-27T09:57:54.940Z,8.10
2022-08-27T10:00:36.413Z,7.88
2022-08-27T10:03:04.601Z,8.10
2022-08-27T10:05:43.713Z,7.63
2022-08-27T10:08:18.181Z,7.20
2022-08-27T10:11:03.455Z,7.55
2022-08-27T10:13:39.480Z,7.85
2022-08-27T10:16:10.293Z,7.45
2022-08-27T10:18:53.097Z,6.47
2022-08-27T10:21:35.821Z,6.82
2022-08-27T10:24:38.788Z,8.15
2022-08-27T10:27:23.983Z,8.48
2022-08-27T10:30:00.918Z,8.13
2022-08-27T10:32:39.747Z,8.48
2022-08-27T10:35:53.717Z,9.18
2022-08-27T10:38:44.892Z,8.80
2022-08-27T10:41:28.824Z,7.53
2022-08-27T10:44:27.855Z,8.40
2022-08-27T10:46:58.167Z,7.10
2022-08-27T10:49:40.048Z,6.82
2022-08-27T10:52:23.661Z,7.75
2022-08-27T10:54:50.813Z,7.72
2022-08-27T10:57:59.079Z,7.38
2022-08-27T11:01:00.745Z,8.68
2022-08-27T11:03:48.723Z,9.18
2022-08-27T11:06:25.952Z,10.50
2022-08-27T11:09:01.535Z,9.07
2022-08-27T11:12:12.651Z,7.50
2022-08-27T11:14:38.557Z,7.32
2022-08-27T11:17:18.535Z,7.45
2022-08-27T11:19:58.965Z,7.78
2022-08-27T11:22:32.073Z,7.47
2022-08-27T11:25:11.793Z,7.35
2022-08-27T11:27:40.925Z,8.35
2022-08-27T11:30:19.269Z,7.95
2022-08-27T11:33:13.878Z,6.88
2022-08-27T11:36:16.206Z,7.43
2022-08-27T11:39:00.049Z,6.75
2022-08-27T11:41:45.472Z,6.60
2022-08-27T11:44:17.614Z,7.28
2022-08-27T11:46:50.192Z,6.43
2022-08-27T11:49:34.358Z,6.53
2022-08-27T11:52:09.715Z,5.95
2022-08-27T11:54:55.944Z,5.15
2022-08-27T11:57:30.549Z,5.20
2022-08-27T11:59:58.909Z,6.22
2022-08-27T12:02:29.474Z,6.10
2022-08-27T12:05:26.296Z,4.93
2022-08-27T12:07:54.263Z,6.70
2022-08-27T12:10:38.214Z,7.30
2022-08-27T12:13:38.101Z,6.38
2022-08-27T12:16:13.903Z,7.05
2022-08-27T12:18:53.250Z,6.68
2022-08-27T12:21:26.608Z,7.90
2022-08-27T12:24:12.576Z,7.47
2022-08-27T12:26:43.345Z,7.82
2022-08-27T12:29:35.431Z,8.10
2022-08-27T12:32:27.286Z,7.30
2022-08-27T12:35:19.551Z,8.07
2022-08-27T12:38:04.406Z,6.78
2022-08-27T12:40:53.844Z,6.75
2022-08-27T12:43:22.684Z,6.32
2022-08-27T12:45:58.310Z,6.72
2022-08-27T12:48:30.203Z,6.38
2022-08-27T12:51:01.273Z,7.43
2022-08-27T12:53:43.153Z,6.38
2022-08-27T12:56:29.332Z,7.40
2022-08-27T12:59:02.606Z,6.70
2022-08-27T13:01:56.098Z,7.95
2022-08-27T13:04:27.293Z,8.02
2022-08-27T13:06:54.817Z,7.25
2022-08-27T13:09:29.059Z,7.82
2022-08-27T13:11:57.683Z,8.32
2022-08-27T13:14:27.851Z,7.22
2022-08-27T13:17:04.202Z,8.02
2022-08-27T13:19:44.852Z,7.22
2022-08-27T13:22:20.685Z,9.07
2022-08-27T13:24:51.302Z,7.65
2022-08-27T13:27:28.745Z,8.52
2022-08-27T13:29:59.239Z,8.15
2022-08-27T13:32:29.793Z,8.05
2022-08-27T13:34:59.325Z,7.88
2022-08-27T13:37:44.606Z,7.45
2022-08-27T13:40:26.893Z,7.60
2022-08-27T13:42:55.427Z,7.45
2022-08-27T13:45:23.376Z,7.57
2022-08-27T13:47:53.768Z,7.38
2022-08-27T13:50:30.937Z,7.07
2022-08-27T13:53:26.469Z,7.05
2022-08-27T13:55:54.922Z,6.82
2022-08-27T13:58:31.682Z,7.13
2022-08-27T14:01:24.433Z,6.93
2022-08-27T14:04:00.433Z,6.38
2022-08-27T14:06:35.979Z,6.72
2022-08-27T14:09:25.229Z,6.90
2022-08-27T14:12:04.669Z,6.90
2022-08-27T14:14:38.393Z,6.70
2022-08-27T14:17:08.806Z,7.07
2022-08-27T14:19:36.484Z,6.28
2022-08-27T14:22:04.666Z,6.93
2022-08-27T14:24:31.989Z,6.47
2022-08-27T14:27:10.091Z,6.10
2022-08-27T14:29:37.779Z,6.95
2022-08-27T14:32:07.546Z,6.80
2022-08-27T14:34:35.422Z,8.45
2022-08-27T14:37:03.937Z,8.60
2022-08-27T14:39:32.008Z,9.23
2022-08-27T14:41:59.982Z,11.43
2022-08-27T14:44:27.223Z,10.15
2022-08-27T14:46:55.163Z,9.38
2022-08-27T14:49:31.369Z,9.35
2022-08-27T14:51:58.916Z,9.35
2022-08-27T14:54:29.003Z,10.90
2022-08-27T14:57:02.861Z,10.93
2022-08-27T14:59:30.377Z,10.77
2022-08-27T15:01:58.881Z,11.73
2022-08-27T15:04:27.392Z,12.15
2022-08-27T15:06:55.434Z,12.73
2022-08-27T15:09:22.998Z,12.55
2022-08-27T15:11:52.014Z,11.63
2022-08-27T15:14:28.479Z,11.00
2022-08-27T15:16:55.941Z,11.60
2022-08-27T15:19:24.761Z,11.10
2022-08-27T15:21:54.655Z,11.18
2022-08-27T15:24:28.455Z,10.88
2022-08-27T15:26:59.718Z,10.27
2022-08-27T15:29:27.478Z,10.13
2022-08-27T15:31:55.354Z,10.82
2022-08-27T15:34:22.576Z,10.85
2022-08-27T15:36:49.830Z,10.75
2022-08-27T15:39:17.344Z,10.02
2022-08-27T15:42:05.855Z,10.27
2022-08-27T15:44:32.149Z,10.75
2022-08-27T15:46:59.387Z,9.77
2022-08-27T15:49:27.097Z,10.35
2022-08-27T15:51:55.282Z,10.27
2022-08-27T15:54:25.136Z,9.45
2022-08-27T15:56:52.351Z,9.27
2022-08-27T15:59:19.614Z,8.60
2022-08-27T16:01:47.124Z,9.25
2022-08-27T16:04:15.504Z,8.80
2022-08-27T16:06:42.813Z,8.68
2022-08-27T16:09:10.310Z,8.23
2022-08-27T16:11:37.677Z,8.15
2022-08-27T16:14:04.960Z,7.82
2022-08-27T16:16:32.746Z,7.05
2022-08-27T16:19:01.701Z,6.45
2022-08-27T16:21:28.929Z,6.55
2022-08-27T16:23:56.256Z,6.35
2022-08-27T16:26:23.603Z,6.35
2022-08-27T16:28:50.917Z,5.82
2022-08-27T16:31:18.525Z,5.88
2022-08-27T16:33:46.911Z,5.43
2022-08-27T16:36:14.382Z,6.28
2022-08-27T16:38:41.621Z,5.75
2022-08-27T16:41:09.014Z,6.22
2022-08-27T16:43:36.402Z,5.63
2022-08-27T16:46:03.723Z,5.90
2022-08-27T16:48:49.369Z,5.65
2022-08-27T16:51:34.794Z,6.28
2022-08-27T16:54:03.952Z,6.10
2022-08-27T16:56:35.113Z,6.03
2022-08-27T16:59:04.571Z,6.38
2022-08-27T17:01:32.986Z,6.30
2022-08-27T17:04:12.885Z,5.95
2022-08-27T17:06:45.049Z,5.70
2022-08-27T17:09:13.345Z,6.07
2022-08-27T17:11:42.928Z,6.32
2022-08-27T17:14:12.089Z,5.80
2022-08-27T17:16:41.585Z,5.90
2022-08-27T17:19:10.968Z,6.45
2022-08-27T17:21:45.208Z,6.40
2022-08-27T17:24:13.624Z,6.68
2022-08-27T17:26:40.917Z,6.60
2022-08-27T17:29:08.197Z,6.75
2022-08-27T17:31:38.408Z,6.47
2022-08-27T17:34:07.250Z,7.15
2022-08-27T17:36:35.133Z,6.40
2022-08-27T17:39:03.539Z,6.43
2022-08-27T17:41:39.369Z,6.55
2022-08-27T17:44:28.989Z,6.88
2022-08-27T17:47:01.575Z,6.50
2022-08-27T17:49:31.062Z,7.03
2022-08-27T17:52:02.260Z,6.22
2022-08-27T17:54:37.505Z,6.68
2022-08-27T17:57:22.316Z,6.80
2022-08-27T17:59:50.274Z,6.97
2022-08-27T18:02:32.915Z,6.30
2022-08-27T18:05:00.963Z,6.28
2022-08-27T18:07:28.433Z,6.00
2022-08-27T18:09:55.772Z,6.07
2022-08-27T18:12:26.035Z,6.10
2022-08-27T18:15:19.659Z,6.90
2022-08-27T18:17:48.206Z,6.18
2022-08-27T18:20:23.017Z,6.68
2022-08-27T18:22:51.263Z,6.25
2022-08-27T18:25:22.801Z,6.18
2022-08-27T18:27:51.636Z,5.90
2022-08-27T18:30:19.200Z,6.93
2022-08-27T18:32:46.534Z,6.47
2022-08-27T18:35:20.056Z,5.95
2022-08-27T18:37:47.893Z,6.60
2022-08-27T18:40:17.301Z,6.53
2022-08-27T18:42:45.449Z,7.65
2022-08-27T18:45:23.795Z,7.75
2022-08-27T18:47:52.657Z,7.90
2022-08-27T18:50:21.154Z,7.60
2022-08-27T18:52:50.801Z,7.88
2022-08-27T18:55:22.739Z,8.15
2022-08-27T18:57:50.023Z,7.03
2022-08-27T19:00:19.140Z,7.85
2022-08-27T19:02:52.049Z,7.13
2022-08-27T19:05:24.413Z,7.50
2022-08-27T19:07:51.637Z,8.13
2022-08-27T19:10:19.037Z,9.40
2022-08-27T19:12:47.693Z,9.70
2022-08-27T19:15:15.185Z,8.40
2022-08-27T19:17:45.459Z,8.35
2022-08-27T19:20:13.113Z,7.65
2022-08-27T19:22:40.328Z,7.72
2022-08-27T19:25:08.231Z,7.47
2022-08-27T19:27:36.523Z,7.80
2022-08-27T19:30:05.599Z,8.15
2022-08-27T19:32:33.175Z,9.30
2022-08-27T19:35:00.877Z,9.38
2022-08-27T19:37:30.685Z,8.48
2022-08-27T19:39:58.255Z,8.95
2022-08-27T19:42:25.535Z,9.38
2022-08-27T19:44:52.973Z,8.32
2022-08-27T19:47:25.700Z,9.02
2022-08-27T19:49:54.153Z,9.70
2022-08-27T19:52:21.749Z,10.70
2022-08-27T19:55:10.209Z,9.13
2022-08-27T19:57:36.756Z,10.85
2022-08-27T20:00:05.717Z,10.10
2022-08-27T20:02:32.921Z,10.50
2022-08-27T20:05:17.421Z,9.98
2022-08-27T20:07:49.721Z,8.95
2022-08-27T20:10:18.814Z,9.25
2022-08-27T20:12:46.128Z,9.80
2022-08-27T20:15:13.854Z,9.07
2022-08-27T20:17:42.763Z,12.45
2022-08-27T20:20:11.533Z,9.85
2022-08-27T20:22:39.861Z,9.95
2022-08-27T20:25:07.929Z,8.82
2022-08-27T20:27:35.642Z,9.68
2022-08-27T20:30:04.696Z,10.00
2022-08-27T20:32:32.066Z,10.98
2022-08-27T20:34:59.262Z,9.23
2022-08-27T20:37:26.492Z,9.20
2022-08-27T20:39:54.033Z,8.95
2022-08-27T20:42:21.400Z,9.45
2022-08-27T20:44:49.215Z,9.68
2022-08-27T20:47:17.735Z,9.68
2022-08-27T20:49:44.953Z,9.65
2022-08-27T20:52:14.838Z,9.70
2022-08-27T20:54:42.330Z,10.30
2022-08-27T20:57:09.559Z,9.45
2022-08-27T20:59:55.116Z,9.68
